Time;durP1;ratioP1;P1;durP2;ratioP2;P2;SDS_P1;SDS_P2;PMS_P1;PMS_P2;Temp;Humidity;BMP_temperature;BMP_pressure;BME280_temperature;BME280_humidity;BME280_pressure;Samples;Min_cycle;Max_cycle;Signal;HPM_P1;HPM_P2
2021/12/07 00:01:26;;;;;;;1.00;1.00;;;;;;;5.93;75.96;93644.94;5098108;28;20195;-70
2021/12/07 00:03:53;;;;;;;1.05;1.05;;;;;;;5.89;75.32;93643.25;5098196;28;20207;-70
2021/12/07 00:06:20;;;;;;;1.13;1.13;;;;;;;5.85;75.90;93645.13;5098004;28;20203;-70
2021/12/07 00:08:49;;;;;;;1.48;1.38;;;;;;;5.88;75.78;93649.84;5080220;28;20205;-70
2021/12/07 00:11:17;;;;;;;1.85;1.20;;;;;;;5.87;75.38;93651.03;5097981;28;20192;-70
2021/12/07 00:13:44;;;;;;;1.63;1.52;;;;;;;5.87;75.33;93651.81;5097943;28;20196;-70
2021/12/07 00:16:13;;;;;;;1.33;1.23;;;;;;;5.87;75.20;93643.59;5080434;28;20192;-70
2021/12/07 00:18:41;;;;;;;1.35;1.35;;;;;;;5.90;75.45;93653.03;5080112;28;20192;-70
2021/12/07 00:21:09;;;;;;;1.27;1.27;;;;;;;5.90;75.82;93653.84;5080012;28;20211;-70
2021/12/07 00:23:36;;;;;;;1.60;1.50;;;;;;;5.86;75.45;93647.50;5080177;28;20199;-70
2021/12/07 00:26:03;;;;;;;1.38;1.30;;;;;;;5.88;75.80;93641.66;5097836;28;20185;-70
2021/12/07 00:28:31;;;;;;;1.50;1.40;;;;;;;5.90;75.98;93636.63;5079912;28;20273;-70
2021/12/07 00:31:09;;;;;;;1.48;1.30;;;;;;;5.93;76.23;93636.72;5097241;28;20206;-70
2021/12/07 00:33:43;;;;;;;1.42;1.33;;;;;;;5.94;76.02;93643.78;5080294;28;20257;-70
2021/12/07 00:36:09;;;;;;;1.60;1.50;;;;;;;5.95;76.12;93650.03;5097234;28;20613;-70
2021/12/07 00:38:36;;;;;;;1.65;1.55;;;;;;;5.96;76.17;93657.13;5097141;28;20597;-70
2021/12/07 00:41:04;;;;;;;1.40;1.30;;;;;;;5.95;76.15;93653.56;5079557;28;20199;-69
2021/12/07 00:43:33;;;;;;;1.65;1.55;;;;;;;5.95;76.57;93661.78;5097208;28;20283;-69
2021/12/07 00:46:01;;;;;;;1.50;1.40;;;;;;;5.93;76.29;93655.88;5096909;28;20232;-69
2021/12/07 00:48:29;;;;;;;1.60;1.50;;;;;;;5.92;75.78;93658.94;5097325;28;20201;-69
2021/12/07 00:50:57;;;;;;;1.60;1.50;;;;;;;5.93;76.14;93661.38;5097163;28;20262;-70
2021/12/07 00:53:26;;;;;;;1.40;1.30;;;;;;;5.94;76.41;93664.88;5079334;28;20203;-70
2021/12/07 00:55:55;;;;;;;1.40;1.30;;;;;;;5.94;76.26;93668.41;5079454;28;20200;-69
2021/12/07 00:58:24;;;;;;;1.35;1.30;;;;;;;5.91;75.98;93666.34;5097353;28;20172;-69
2021/12/07 01:00:54;;;;;;;1.30;1.20;;;;;;;5.91;75.98;93662.84;5079209;28;20206;-69
2021/12/07 01:03:21;;;;;;;1.15;1.15;;;;;;;5.89;76.19;93665.16;5096968;28;20515;-69
2021/12/07 01:05:51;;;;;;;1.58;1.48;;;;;;;5.86;76.53;93660.38;5096746;28;20189;-69
2021/12/07 01:08:35;;;;;;;1.80;1.70;;;;;;;5.84;76.76;93651.72;5096897;28;20223;-69
2021/12/07 01:24:47;;;;;;;1.00;1.00;;;;;;;6.05;76.24;93654.97;5053113;28;20290;-69
2021/12/07 01:27:16;;;;;;;1.00;1.00;;;;;;;6.05;76.27;93640.50;5096669;28;20197;-69
2021/12/07 01:29:45;;;;;;;1.10;1.00;;;;;;;6.05;76.70;93644.00;5096437;28;20184;-69
2021/12/07 01:32:27;;;;;;;1.10;1.10;;;;;;;6.03;76.91;93641.66;5112485;28;20197;-69
2021/12/07 01:38:04;;;;;;;1.40;1.30;;;;;;;6.03;77.81;93649.06;5017915;28;20202;-69
2021/12/07 01:40:45;;;;;;;1.70;1.60;;;;;;;5.98;78.29;93641.13;5069866;28;20200;-69
2021/12/07 01:59:54;;;;;;;2.17;1.98;;;;;;;5.94;78.43;93610.16;5111775;28;20200;-69
2021/12/07 02:02:23;;;;;;;2.03;1.50;;;;;;;5.93;78.23;93608.56;5129018;28;20294;-69
2021/12/07 02:04:50;;;;;;;1.40;1.30;;;;;;;5.89;78.26;93604.94;5112528;28;20195;-69
2021/12/07 02:07:17;;;;;;;1.63;1.52;;;;;;;5.86;77.57;93595.50;5112798;28;20184;-69
2021/12/07 02:09:51;;;;;;;1.50;1.40;;;;;;;5.78;77.21;93578.16;5112890;28;20195;-69
2021/12/07 02:12:17;;;;;;;1.63;1.40;;;;;;;5.74;77.30;93585.50;5128952;28;20616;-69
2021/12/07 02:14:44;;;;;;;2.08;1.35;;;;;;;5.69;77.58;93596.69;5111957;28;20210;-69
2021/12/07 02:17:13;;;;;;;1.50;1.30;;;;;;;5.64;77.51;93602.47;5111513;28;20204;-69
2021/12/07 02:19:42;;;;;;;1.30;1.20;;;;;;;5.59;77.31;93597.25;5128879;28;20199;-69
2021/12/07 02:22:11;;;;;;;1.30;1.20;;;;;;;5.57;77.51;93605.03;5111815;28;20188;-68
2021/12/07 02:24:39;;;;;;;1.35;1.10;;;;;;;5.54;76.95;93603.78;5128497;28;20299;-69
2021/12/07 02:27:07;;;;;;;1.30;1.20;;;;;;;5.51;77.57;93607.25;5112532;28;20332;-69
2021/12/07 02:29:34;;;;;;;1.13;0.90;;;;;;;5.47;76.88;93598.16;5112165;28;20218;-69
2021/12/07 02:32:02;;;;;;;1.17;1.10;;;;;;;5.46;77.34;93588.38;5111622;28;20198;-69
2021/12/07 02:34:29;;;;;;;1.20;1.05;;;;;;;5.43;76.85;93585.56;5111998;28;20530;-69
2021/12/07 02:36:57;;;;;;;1.33;1.10;;;;;;;5.43;77.56;93585.56;5112052;28;20519;-69
2021/12/07 02:39:31;;;;;;;1.48;1.30;;;;;;;5.42;77.76;93579.31;5111951;28;20192;-69
2021/12/07 02:41:58;;;;;;;2.30;1.25;;;;;;;5.40;77.09;93567.94;5111710;28;20195;-69
2021/12/07 02:44:25;;;;;;;1.13;1.10;;;;;;;5.41;76.96;93575.00;5111129;28;20333;-69
2021/12/07 02:46:51;;;;;;;1.33;1.23;;;;;;;5.37;76.19;93586.97;5112169;28;20206;-69
2021/12/07 02:49:19;;;;;;;1.75;1.00;;;;;;;5.28;76.40;93587.19;5111153;28;20203;-69
2021/12/07 02:51:46;;;;;;;1.10;1.00;;;;;;;5.29;76.52;93586.03;5111354;28;20702;-69
2021/12/07 02:54:13;;;;;;;1.15;0.95;;;;;;;5.30;76.34;93599.38;5110800;28;20600;-69
2021/12/07 02:56:42;;;;;;;1.10;1.00;;;;;;;5.28;76.05;93592.66;5128226;28;20199;-69
2021/12/07 02:59:10;;;;;;;1.85;1.10;;;;;;;5.23;75.57;93599.19;5111623;28;20623;-69
2021/12/07 03:01:44;;;;;;;1.83;1.02;;;;;;;5.19;75.25;93598.31;5111254;28;20211;-69
2021/12/07 03:04:18;;;;;;;1.23;1.10;;;;;;;5.11;75.33;93601.22;5106557;28;20184;-69
2021/12/07 03:06:55;;;;;;;1.30;1.20;;;;;;;5.06;76.02;93591.34;5097851;28;20257;-69
2021/12/07 03:26:07;;;;;;;1.13;1.00;;;;;;;4.77;75.71;93593.38;5096927;28;20192;-69
2021/12/07 03:28:37;;;;;;;0.88;0.88;;;;;;;4.77;75.69;93581.66;5097576;28;20497;-69
2021/12/07 03:31:05;;;;;;;0.95;0.93;;;;;;;4.72;74.93;93574.53;5096761;28;20198;-69
2021/12/07 03:33:33;;;;;;;0.77;0.77;;;;;;;4.71;75.12;93585.81;5096663;28;20248;-69
2021/12/07 03:36:00;;;;;;;1.10;1.00;;;;;;;4.71;74.92;93592.06;5097296;28;20185;-69
2021/12/07 03:38:27;;;;;;;1.75;1.65;;;;;;;4.69;75.19;93588.09;5096741;28;20208;-69
2021/12/07 03:40:54;;;;;;;1.30;1.20;;;;;;;4.63;74.77;93586.78;5097143;28;20609;-69
2021/12/07 03:43:21;;;;;;;1.50;1.40;;;;;;;4.58;74.83;93582.38;5096558;28;20196;-69
2021/12/07 03:45:49;;;;;;;1.50;1.40;;;;;;;4.58;75.22;93576.91;5097199;28;20191;-69
2021/12/07 03:48:16;;;;;;;1.40;1.30;;;;;;;4.62;74.84;93575.06;5097093;28;20605;-70
2021/12/07 03:50:44;;;;;;;1.60;1.50;;;;;;;4.57;75.00;93573.38;5097349;28;20185;-69
2021/12/07 03:53:11;;;;;;;1.40;1.30;;;;;;;4.58;74.74;93580.44;5095842;28;20232;-69
2021/12/07 03:55:39;;;;;;;1.55;1.15;;;;;;;4.54;74.30;93578.75;5096212;28;20211;-69
2021/12/07 03:58:06;;;;;;;0.95;0.95;;;;;;;4.46;74.00;93576.97;5096475;28;20195;-69
2021/12/07 04:00:35;;;;;;;0.90;0.90;;;;;;;4.38;73.87;93584.19;5096296;28;20196;-69
2021/12/07 04:03:08;;;;;;;1.30;1.10;;;;;;;4.40;74.70;93573.72;5097057;28;20191;-69
2021/12/07 04:05:36;;;;;;;1.10;1.10;;;;;;;4.40;74.28;93573.72;5096118;28;20299;-68
2021/12/07 04:08:04;;;;;;;1.40;1.30;;;;;;;4.39;74.98;93579.50;5096176;28;20219;-69
2021/12/07 04:10:31;;;;;;;1.23;1.10;;;;;;;4.34;73.99;93581.34;5096162;28;20286;-69
2021/12/07 04:12:58;;;;;;;1.50;1.40;;;;;;;4.34;75.12;93586.81;5096819;28;20231;-69
2021/12/07 04:15:25;;;;;;;1.30;1.20;;;;;;;4.36;74.69;93578.28;5095776;28;20297;-70
2021/12/07 04:17:52;;;;;;;1.20;1.20;;;;;;;4.34;74.66;93583.28;5096255;28;20185;-69
2021/12/07 04:20:21;;;;;;;1.40;1.30;;;;;;;4.33;74.69;93581.72;5096405;28;20627;-70
2021/12/07 04:22:48;;;;;;;1.70;1.60;;;;;;;4.33;74.99;93582.50;5096765;28;20202;-70
2021/12/07 04:25:17;;;;;;;1.80;1.70;;;;;;;4.32;75.02;93586.38;5096651;28;20192;-70
2021/12/07 04:27:44;;;;;;;2.72;2.53;;;;;;;4.26;74.31;93581.53;5096584;28;20203;-69
2021/12/07 04:30:13;;;;;;;1.90;1.80;;;;;;;4.28;74.74;93587.41;5096743;28;20207;-69
2021/12/07 04:32:40;;;;;;;1.90;1.80;;;;;;;4.27;75.14;93586.63;5095978;28;20198;-69
2021/12/07 04:35:09;;;;;;;1.80;1.70;;;;;;;4.28;74.55;93584.69;5096144;28;20184;-69
2021/12/07 04:37:38;;;;;;;1.70;1.60;;;;;;;4.25;74.26;93580.75;5096327;28;20192;-69
2021/12/07 04:40:05;;;;;;;1.75;1.63;;;;;;;4.20;73.41;93586.44;5096036;28;20196;-69
2021/12/07 04:42:32;;;;;;;1.70;1.58;;;;;;;4.18;73.48;93580.53;5096291;28;20181;-69
2021/12/07 04:45:03;;;;;;;1.60;1.50;;;;;;;4.11;73.00;93583.06;5095475;28;20189;-69
2021/12/07 04:47:39;;;;;;;2.00;1.90;;;;;;;4.00;73.31;93582.00;5095244;28;20316;-70
2021/12/07 04:58:17;;;;;;;1.55;1.45;;;;;;;3.80;73.55;93586.47;5094809;28;20204;-69
2021/12/07 05:00:44;;;;;;;1.90;1.80;;;;;;;3.75;73.55;93586.75;5096029;28;20287;-72
2021/12/07 05:03:13;;;;;;;1.90;1.80;;;;;;;3.72;74.03;93588.22;5095137;28;20184;-72
2021/12/07 05:05:45;;;;;;;1.73;1.63;;;;;;;3.73;74.00;93589.00;5095921;28;20269;-71
2021/12/07 05:08:17;;;;;;;1.70;1.60;;;;;;;3.70;74.03;93584.25;5095886;28;20188;-70
2021/12/07 05:11:12;;;;;;;1.50;1.40;;;;;;;3.69;73.62;93586.19;5094979;28;20204;-71
2021/12/07 05:13:50;;;;;;;2.15;1.50;;;;;;;3.62;73.59;93584.03;5095313;28;20331;-71
2021/12/07 05:16:32;;;;;;;2.38;2.25;;;;;;;3.61;73.83;93590.63;5096366;28;20536;-71
2021/12/07 05:19:14;;;;;;;2.25;2.10;;;;;;;3.60;74.15;93580.09;5096029;28;20246;-71
2021/12/07 05:24:26;;;;;;;2.60;2.40;;;;;;;3.54;73.95;93592.34;5094818;28;20510;-70
2021/12/07 05:37:57;;;;;;;2.63;2.30;;;;;;;3.40;73.71;93592.72;5095472;28;20196;-71
2021/12/07 05:40:27;;;;;;;2.45;2.25;;;;;;;3.40;74.00;93586.47;5094623;28;20204;-71
2021/12/07 05:42:54;;;;;;;2.28;2.08;;;;;;;3.41;74.10;93590.78;5094965;28;20613;-71
2021/12/07 05:45:23;;;;;;;1.90;1.80;;;;;;;3.36;73.81;93589.88;5094668;28;20203;-71
2021/12/07 05:47:50;;;;;;;1.90;1.80;;;;;;;3.37;74.04;93583.28;5094783;28;20196;-71
2021/12/07 05:50:20;;;;;;;2.60;2.40;;;;;;;3.37;74.38;93587.94;5094081;28;20193;-71
2021/12/07 05:52:47;;;;;;;2.75;2.55;;;;;;;3.39;73.95;93582.97;5094099;28;20238;-71
2021/12/07 05:55:14;;;;;;;3.50;3.20;;;;;;;3.41;73.68;93577.94;5094265;28;20208;-71
2021/12/07 05:57:43;;;;;;;1.98;1.88;;;;;;;3.42;73.63;93574.09;5095288;28;20188;-71
2021/12/07 06:00:13;;;;;;;1.52;1.42;;;;;;;3.45;73.61;93578.88;5095129;28;20184;-74
2021/12/07 06:02:40;;;;;;;1.70;1.60;;;;;;;3.49;73.66;93584.44;5094471;28;20200;-72
2021/12/07 06:05:08;;;;;;;1.77;1.67;;;;;;;3.45;73.65;93588.94;5095272;28;20180;-71
2021/12/07 06:07:35;;;;;;;1.80;1.70;;;;;;;3.46;73.25;93580.44;5095048;28;20434;-70
2021/12/07 06:10:01;;;;;;;1.70;1.60;;;;;;;3.48;73.10;93588.28;5094313;28;20196;-69
2021/12/07 06:12:28;;;;;;;1.90;1.70;;;;;;;3.45;73.39;93588.94;5093988;28;20196;-70
2021/12/07 06:14:57;;;;;;;2.70;2.50;;;;;;;3.47;73.51;93583.97;5094306;28;20216;-69
2021/12/07 06:17:23;;;;;;;2.13;2.03;;;;;;;3.42;73.55;93587.72;5095037;28;20187;-69
2021/12/07 06:19:50;;;;;;;2.10;1.77;;;;;;;3.40;73.47;93584.53;5094724;28;20196;-71
2021/12/07 06:22:17;;;;;;;1.90;1.80;;;;;;;3.39;73.43;93585.69;5094742;28;20192;-71
2021/12/07 06:24:45;;;;;;;1.98;1.80;;;;;;;3.40;73.38;93586.47;5094365;28;20196;-70
2021/12/07 06:27:11;;;;;;;2.10;2.00;;;;;;;3.36;73.36;93589.88;5094295;28;20215;-70
2021/12/07 06:29:38;;;;;;;2.15;2.05;;;;;;;3.38;73.52;93589.56;5094172;28;20422;-71
2021/12/07 06:32:08;;;;;;;2.30;2.10;;;;;;;3.37;73.77;93585.22;5095170;28;20200;-71
2021/12/07 06:34:35;;;;;;;2.03;1.92;;;;;;;3.35;73.63;93587.50;5095092;28;20204;-71
2021/12/07 06:37:03;;;;;;;3.35;3.05;;;;;;;3.35;73.65;93590.25;5095147;28;20177;-71
2021/12/07 06:39:30;;;;;;;2.55;2.35;;;;;;;3.35;73.87;93587.50;5096410;28;20202;-70
2021/12/07 06:41:57;;;;;;;2.15;1.95;;;;;;;3.39;73.54;93588.41;5099177;28;20180;-70
2021/12/07 06:44:24;;;;;;;1.90;1.80;;;;;;;3.42;73.50;93590.47;5098334;28;20617;-70
2021/12/07 06:46:50;;;;;;;1.95;1.80;;;;;;;3.38;73.46;93590.34;5099180;28;20196;-70
2021/12/07 06:49:20;;;;;;;2.35;2.20;;;;;;;3.37;73.76;93594.19;5098805;28;20199;-70
2021/12/07 06:51:48;;;;;;;3.13;2.90;;;;;;;3.38;73.52;93593.06;5098565;28;20195;-72
2021/12/07 06:54:15;;;;;;;3.10;2.78;;;;;;;3.38;73.24;93590.34;5097485;28;20247;-71
2021/12/07 06:56:42;;;;;;;4.03;3.58;;;;;;;3.39;73.00;93588.41;5098879;28;20540;-71
2021/12/07 06:59:09;;;;;;;4.03;3.72;;;;;;;3.38;73.22;93593.06;5098539;28;20207;-70
2021/12/07 07:01:35;;;;;;;3.42;2.97;;;;;;;3.37;73.24;93593.41;5098138;28;20192;-70
2021/12/07 07:04:03;;;;;;;2.47;2.38;;;;;;;3.37;72.70;93596.91;5097389;28;20188;-70
2021/12/07 07:06:31;;;;;;;2.75;2.55;;;;;;;3.35;73.14;93595.69;5098291;28;20199;-70
2021/12/07 07:08:58;;;;;;;2.53;2.33;;;;;;;3.33;72.84;93595.22;5097414;28;20196;-70
2021/12/07 07:11:25;;;;;;;2.40;2.20;;;;;;;3.31;73.08;93594.78;5096882;28;20431;-70
2021/12/07 07:13:52;;;;;;;2.22;2.03;;;;;;;3.30;72.93;93598.63;5096924;28;20248;-70
2021/12/07 07:16:19;;;;;;;2.40;2.20;;;;;;;3.28;73.70;93593.53;5097325;28;20437;-69
2021/12/07 07:18:46;;;;;;;2.00;1.90;;;;;;;3.25;73.13;93596.94;5096950;28;20456;-69
2021/12/07 07:21:13;;;;;;;2.50;2.33;;;;;;;3.24;73.27;93589.91;5098284;28;20189;-68
2021/12/07 07:23:41;;;;;;;2.63;2.42;;;;;;;3.22;73.31;93594.91;5097921;28;20185;-69
2021/12/07 07:26:08;;;;;;;2.50;2.30;;;;;;;3.20;73.68;93596.41;5097877;28;20184;-69
2021/12/07 07:28:35;;;;;;;3.70;2.80;;;;;;;3.22;73.60;93599.56;5096790;28;20193;-69
2021/12/07 07:31:03;;;;;;;3.92;3.53;;;;;;;3.20;73.54;93593.69;5097402;28;20185;-69
2021/12/07 07:33:30;;;;;;;2.83;2.63;;;;;;;3.17;73.84;93597.88;5097739;28;20196;-69
2021/12/07 07:35:57;;;;;;;2.30;2.10;;;;;;;3.17;73.51;93597.06;5096602;28;20242;-69
2021/12/07 07:38:24;;;;;;;2.42;2.20;;;;;;;3.15;73.36;93597.41;5098118;28;20179;-68
2021/12/07 07:40:52;;;;;;;3.03;2.72;;;;;;;3.13;73.28;93595.03;5096878;28;20196;-69
2021/12/07 07:43:20;;;;;;;2.90;2.40;;;;;;;3.18;73.60;93594.00;5097246;28;20195;-69
2021/12/07 07:45:48;;;;;;;1.80;1.70;;;;;;;3.14;73.30;93595.81;5097204;28;20176;-68
2021/12/07 07:48:15;;;;;;;2.40;2.28;;;;;;;3.10;73.43;93600.38;5096563;28;20200;-69
2021/12/07 07:50:42;;;;;;;2.22;2.13;;;;;;;3.10;73.71;93601.16;5097306;28;20207;-69
2021/12/07 07:53:09;;;;;;;3.15;2.38;;;;;;;3.02;73.84;93596.63;5097137;28;20232;-70
2021/12/07 07:55:38;;;;;;;2.20;2.05;;;;;;;3.04;73.71;93593.56;5096948;28;20204;-68
2021/12/07 07:58:06;;;;;;;2.45;2.25;;;;;;;3.05;74.02;93595.13;5097048;28;20261;-69
2021/12/07 08:00:34;;;;;;;3.30;3.10;;;;;;;3.08;74.29;93600.69;5096431;28;20613;-69
2021/12/07 08:03:01;;;;;;;2.80;2.60;;;;;;;3.09;74.12;93596.06;5096735;28;20283;-68
2021/12/07 08:05:28;;;;;;;2.88;2.67;;;;;;;3.09;74.30;93594.13;5096529;28;20196;-67
2021/12/07 08:07:54;;;;;;;3.13;2.92;;;;;;;3.09;73.91;93593.34;5096178;28;20197;-69
2021/12/07 08:10:28;;;;;;;2.30;2.20;;;;;;;3.10;73.96;93592.19;5096465;28;20200;-68
2021/12/07 08:12:55;;;;;;;2.20;2.10;;;;;;;3.12;73.90;93603.53;5095664;28;20203;-68
2021/12/07 08:15:23;;;;;;;3.25;2.65;;;;;;;3.14;73.92;93604.00;5096866;28;20218;-70
2021/12/07 08:17:50;;;;;;;2.33;2.13;;;;;;;3.10;73.69;93606.59;5096567;28;20204;-69
2021/12/07 08:20:17;;;;;;;2.17;1.98;;;;;;;3.11;72.97;93604.66;5096621;28;20190;-70
2021/12/07 08:22:44;;;;;;;1.83;1.73;;;;;;;3.07;72.92;93610.00;5096586;28;20184;-70
2021/12/07 08:25:11;;;;;;;1.75;1.65;;;;;;;3.02;72.84;93612.97;5096760;28;20200;-69
2021/12/07 08:27:38;;;;;;;2.35;1.90;;;;;;;2.92;73.37;93610.69;5095515;28;20212;-69
2021/12/07 08:30:05;;;;;;;2.08;1.90;;;;;;;2.91;73.95;93611.84;5095937;28;20204;-70
2021/12/07 08:32:34;;;;;;;2.83;2.63;;;;;;;2.96;74.26;93613.53;5096063;28;20196;-69
2021/12/07 08:35:00;;;;;;;1.90;1.80;;;;;;;2.88;73.88;93620.69;5096506;28;20233;-69
2021/12/07 08:37:27;;;;;;;1.98;1.88;;;;;;;2.95;74.17;93614.69;5095743;28;20197;-70
2021/12/07 08:39:55;;;;;;;2.00;1.90;;;;;;;2.97;74.30;93615.13;5096494;28;20694;-71
2021/12/07 08:42:22;;;;;;;1.85;1.75;;;;;;;2.98;74.31;93614.78;5096287;28;20192;-70
2021/12/07 08:44:49;;;;;;;1.92;1.83;;;;;;;2.95;73.64;93617.41;5096113;28;20203;-66
2021/12/07 08:47:16;;;;;;;3.10;2.55;;;;;;;2.95;73.79;93617.41;5095570;28;20211;-67
2021/12/07 08:49:44;;;;;;;3.15;2.88;;;;;;;2.94;74.22;93619.34;5096041;28;20187;-69
2021/12/07 08:52:11;;;;;;;2.50;2.30;;;;;;;2.94;74.10;93634.84;5095499;28;20640;-69
2021/12/07 08:59:38;;;;;;;1.98;1.88;;;;;;;2.99;73.95;93631.94;5095312;28;20213;-69
2021/12/07 09:00:17;;;;;;;2.03;1.88;;;;;;;2.98;73.57;93630.31;5096226;28;20204;-69
2021/12/07 09:02:44;;;;;;;2.17;2.08;;;;;;;3.00;73.65;93631.56;5094846;28;20200;-69
2021/12/07 09:05:13;;;;;;;2.90;2.67;;;;;;;3.03;73.73;93638.28;5095108;28;20200;-69
2021/12/07 09:07:39;;;;;;;3.08;2.85;;;;;;;3.00;73.23;93642.47;5095907;28;20207;-70
2021/12/07 09:10:07;;;;;;;3.67;3.38;;;;;;;3.00;73.44;93638.94;5095991;28;20195;-69
2021/12/07 09:12:34;;;;;;;9.63;8.60;;;;;;;2.98;73.87;93639.31;5095380;28;20224;-69
2021/12/07 09:15:00;;;;;;;7.38;6.43;;;;;;;2.97;73.45;93636.91;5094836;28;20212;-69
2021/12/07 09:17:27;;;;;;;5.03;4.53;;;;;;;2.99;73.65;93626.47;5094983;28;20215;-69
2021/12/07 09:19:54;;;;;;;8.15;6.28;;;;;;;3.01;73.89;93629.63;5095824;28;20192;-71
2021/12/07 09:22:22;;;;;;;4.72;4.07;;;;;;;2.96;73.60;93632.59;5096032;28;20189;-72
2021/12/07 09:24:49;;;;;;;3.08;2.80;;;;;;;2.92;73.52;93631.69;5095907;28;20190;-71
2021/12/07 09:27:16;;;;;;;3.15;2.95;;;;;;;2.84;73.53;93628.72;5094878;28;20200;-71
2021/12/07 09:29:43;;;;;;;3.85;3.55;;;;;;;2.84;74.08;93622.50;5095678;28;20188;-71
2021/12/07 09:32:10;;;;;;;3.70;3.40;;;;;;;2.87;73.98;93619.91;5094828;28;20288;-70
2021/12/07 09:34:37;;;;;;;3.95;3.65;;;;;;;2.90;73.86;93618.41;5095559;28;20200;-69
2021/12/07 09:37:04;;;;;;;3.25;2.95;;;;;;;2.86;73.69;93618.28;5095677;28;20196;-70
2021/12/07 09:39:32;;;;;;;3.30;3.03;;;;;;;2.85;74.14;93615.91;5096191;28;20184;-70
2021/12/07 09:41:59;;;;;;;3.42;3.10;;;;;;;2.83;74.07;93618.97;5095615;28;20206;-70
2021/12/07 09:44:26;;;;;;;3.20;3.00;;;;;;;2.84;74.23;93617.84;5095010;28;20197;-70
2021/12/07 09:46:53;;;;;;;2.97;2.78;;;;;;;2.84;74.13;93617.84;5094972;28;20259;-70
2021/12/07 09:49:20;;;;;;;3.63;3.33;;;;;;;2.90;75.01;93612.94;5094518;28;20541;-70
2021/12/07 09:51:46;;;;;;;3.05;2.80;;;;;;;2.93;74.46;93606.81;5095648;28;20241;-69
2021/12/07 09:54:13;;;;;;;2.50;2.30;;;;;;;2.95;74.16;93601.84;5094537;28;20680;-69
2021/12/07 09:56:42;;;;;;;2.20;2.10;;;;;;;2.94;74.15;93610.34;5095300;28;20220;-69
2021/12/07 09:59:10;;;;;;;2.35;2.15;;;;;;;2.94;74.25;93610.34;5094659;28;20199;-69
2021/12/07 10:01:38;;;;;;;2.42;2.22;;;;;;;2.95;74.54;93606.50;5094886;28;20223;-69
2021/12/07 10:04:05;;;;;;;2.88;2.67;;;;;;;2.97;74.72;93612.38;5095503;28;20187;-70
2021/12/07 10:06:32;;;;;;;3.17;2.90;;;;;;;2.99;74.61;93607.41;5095207;28;20196;-70
2021/12/07 10:08:59;;;;;;;3.65;3.40;;;;;;;3.00;74.66;93606.25;5094219;28;20199;-70
2021/12/07 10:11:26;;;;;;;3.83;3.53;;;;;;;3.03;75.03;93606.38;5095210;28;20199;-70
2021/12/07 10:13:54;;;;;;;3.45;3.25;;;;;;;3.04;74.50;93607.16;5095471;28;20188;-70
2021/12/07 10:16:23;;;;;;;4.28;3.97;;;;;;;3.04;74.49;93607.16;5099353;28;20204;-71
2021/12/07 10:18:50;;;;;;;5.20;4.70;;;;;;;3.05;74.04;93604.13;5098540;28;20196;-70
2021/12/07 10:21:18;;;;;;;7.10;6.03;;;;;;;3.05;74.53;93598.69;5098639;28;20620;-69
2021/12/07 10:23:48;;;;;;;3.50;3.20;;;;;;;3.09;74.41;93604.25;5099378;28;20208;-70
2021/12/07 10:26:17;;;;;;;3.50;3.20;;;;;;;3.11;74.25;93599.22;5098244;28;20199;-67
2021/12/07 10:28:46;;;;;;;3.10;2.90;;;;;;;3.14;73.61;93585.72;5098641;28;20245;-68
2021/12/07 10:31:28;;;;;;;2.90;2.70;;;;;;;3.16;73.95;93581.84;5098004;28;20184;-68
2021/12/07 10:33:58;;;;;;;3.72;3.42;;;;;;;3.13;74.00;93581.41;5099285;28;20180;-68
2021/12/07 10:36:27;;;;;;;2.50;2.30;;;;;;;3.16;73.75;93590.84;5099722;28;20236;-70
2021/12/07 10:38:57;;;;;;;2.50;2.30;;;;;;;3.17;73.71;93597.88;5099263;28;20173;-69
2021/12/07 10:41:26;;;;;;;3.88;2.88;;;;;;;3.11;73.93;93593.78;5098051;28;20197;-69
2021/12/07 10:43:56;;;;;;;2.55;2.35;;;;;;;3.14;73.70;93595.81;5098916;28;20234;-68
2021/12/07 10:46:50;;;;;;;2.13;2.03;;;;;;;3.13;73.15;93583.34;5098975;28;20188;-68
2021/12/07 10:49:33;;;;;;;1.88;1.77;;;;;;;3.10;72.58;93584.03;5097974;28;20203;-68
2021/12/07 10:52:16;;;;;;;1.67;1.58;;;;;;;3.10;73.07;93586.75;5098285;28;20193;-69
2021/12/07 10:54:49;;;;;;;2.00;1.90;;;;;;;3.13;73.86;93589.59;5096586;28;20226;-69
2021/12/07 10:57:19;;;;;;;1.80;1.70;;;;;;;3.15;73.37;93591.94;5097503;28;20204;-69
2021/12/07 11:00:16;;;;;;;1.75;1.65;;;;;;;3.12;73.42;93589.91;5097467;28;20196;-68
2021/12/07 11:02:46;;;;;;;2.20;2.10;;;;;;;3.14;73.50;93593.09;5097476;28;20613;-67
2021/12/07 11:05:17;;;;;;;1.70;1.60;;;;;;;3.18;73.58;93596.72;5097367;28;20212;-68
2021/12/07 11:07:44;;;;;;;1.58;1.48;;;;;;;3.19;73.14;93575.72;5098212;28;20518;-68
2021/12/07 11:10:16;;;;;;;1.80;1.70;;;;;;;3.19;73.59;93573.78;5098203;28;20193;-69
2021/12/07 11:12:54;;;;;;;1.90;1.80;;;;;;;3.20;73.57;93563.69;5097386;28;20196;-69
2021/12/07 11:15:25;;;;;;;2.17;2.08;;;;;;;3.18;73.14;93563.25;5097126;28;20219;-69
2021/12/07 11:17:55;;;;;;;2.00;1.90;;;;;;;3.17;73.26;93561.66;5099061;28;20257;-69
2021/12/07 11:20:22;;;;;;;1.90;1.80;;;;;;;3.21;73.08;93560.63;5097188;28;20208;-69
2021/12/07 11:22:53;;;;;;;1.80;1.70;;;;;;;3.17;72.67;93562.44;5098623;28;20192;-69
2021/12/07 11:31:21;;;;;;;2.58;2.42;;;;;;;3.11;72.98;93559.16;5097603;28;20204;-69
2021/12/07 11:33:51;;;;;;;2.38;2.17;;;;;;;3.12;72.85;93568.94;5098053;28;20214;-69
2021/12/07 11:36:21;;;;;;;2.13;1.98;;;;;;;3.10;73.01;93568.47;5097240;28;20216;-69
2021/12/07 11:38:48;;;;;;;1.95;1.83;;;;;;;3.08;72.92;93559.81;5097722;28;20184;-69
2021/12/07 11:41:18;;;;;;;2.00;1.90;;;;;;;3.09;72.44;93566.09;5096823;28;20208;-69
2021/12/07 11:43:54;;;;;;;1.70;1.60;;;;;;;3.11;72.43;93567.31;5096961;28;20532;-67
2021/12/07 11:46:22;;;;;;;1.75;1.65;;;;;;;3.12;72.26;93555.31;5097378;28;20185;-69
2021/12/07 11:48:50;;;;;;;1.92;1.83;;;;;;;3.13;72.85;93556.09;5096384;28;20196;-70
2021/12/07 11:51:17;;;;;;;2.00;1.90;;;;;;;3.10;72.64;93560.28;5097599;28;20193;-69
2021/12/07 11:53:44;;;;;;;2.30;2.20;;;;;;;3.09;72.56;93574.28;5097130;28;20240;-69
2021/12/07 11:56:11;;;;;;;2.60;2.40;;;;;;;3.07;72.31;93582.75;5096121;28;20204;-69
2021/12/07 11:58:38;;;;;;;2.30;2.20;;;;;;;3.02;72.12;93572.13;5096443;28;20200;-68
2021/12/07 12:01:06;;;;;;;2.25;2.10;;;;;;;3.03;72.74;93562.81;5096308;28;20197;-69
2021/12/07 12:03:33;;;;;;;2.08;1.98;;;;;;;3.04;73.10;93552.69;5096653;28;20228;-69
2021/12/07 12:06:01;;;;;;;2.40;2.20;;;;;;;3.08;72.91;93561.75;5096852;28;20189;-69
2021/12/07 12:08:28;;;;;;;2.33;1.98;;;;;;;3.08;71.64;93562.56;5096755;28;20218;-69
2021/12/07 12:10:57;;;;;;;2.20;1.98;;;;;;;3.12;72.30;93568.94;5097019;28;20192;-69
2021/12/07 12:13:33;;;;;;;1.90;1.80;;;;;;;3.10;72.40;93564.94;5096440;28;20224;-69
2021/12/07 12:16:12;;;;;;;2.53;2.08;;;;;;;3.11;72.46;93556.44;5097067;28;20219;-70
2021/12/07 12:18:48;;;;;;;2.10;2.00;;;;;;;3.13;71.99;93559.63;5096877;28;20185;-69
2021/12/07 12:21:27;;;;;;;3.22;3.03;;;;;;;3.13;71.48;93564.28;5097238;28;20181;-70
2021/12/07 12:24:07;;;;;;;2.70;2.50;;;;;;;3.14;71.15;93549.50;5096994;28;20198;-71
2021/12/07 12:26:35;;;;;;;2.33;2.22;;;;;;;3.13;70.27;93550.66;5095976;28;20278;-71
2021/12/07 12:29:02;;;;;;;2.90;2.70;;;;;;;3.12;70.83;93555.31;5095896;28;20250;-71
2021/12/07 12:31:52;;;;;;;3.53;3.15;;;;;;;3.16;70.43;93544.53;5097159;28;20184;-71
2021/12/07 12:34:23;;;;;;;3.10;2.80;;;;;;;3.16;70.86;93546.44;5095832;28;20215;-71
2021/12/07 12:37:03;;;;;;;3.47;3.28;;;;;;;3.19;71.71;93537.56;5095016;28;20637;-71
2021/12/07 12:39:42;;;;;;;2.65;2.45;;;;;;;3.09;70.39;93550.53;5096712;28;20181;-71
2021/12/07 12:42:09;;;;;;;2.60;2.40;;;;;;;3.08;70.87;93548.94;5096268;28;20516;-71
2021/12/07 12:44:37;;;;;;;2.90;2.70;;;;;;;3.12;71.27;93549.88;5095141;28;20199;-70
2021/12/07 12:47:06;;;;;;;3.75;2.60;;;;;;;3.11;71.16;93553.69;5095660;28;20199;-70
2021/12/07 12:49:38;;;;;;;2.90;2.50;;;;;;;3.07;70.79;93557.47;5095290;28;20200;-70
2021/12/07 12:52:07;;;;;;;2.38;2.20;;;;;;;3.02;70.75;93565.88;5095446;28;20620;-70
2021/12/07 12:54:42;;;;;;;2.95;2.75;;;;;;;3.05;70.79;93571.44;5095381;28;20270;-70
2021/12/07 12:57:12;;;;;;;1.98;1.88;;;;;;;3.00;70.44;93571.66;5095649;28;20220;-70
2021/12/07 12:59:39;;;;;;;2.22;2.13;;;;;;;2.99;70.19;93572.78;5095418;28;20192;-71
2021/12/07 13:02:06;;;;;;;2.63;2.42;;;;;;;3.01;70.02;93564.25;5096151;28;20187;-71
2021/12/07 13:04:34;;;;;;;2.22;2.13;;;;;;;3.00;69.82;93568.94;5095300;28;20295;-71
2021/12/07 13:07:23;;;;;;;2.78;2.58;;;;;;;2.98;69.86;93573.13;5096084;28;20198;-70
2021/12/07 13:09:54;;;;;;;3.22;3.00;;;;;;;2.96;71.03;93573.47;5095661;28;20257;-70
2021/12/07 13:12:24;;;;;;;3.38;3.08;;;;;;;2.94;70.76;93580.38;5095442;28;20604;-70